Time;durP1;ratioP1;P1;durP2;ratioP2;P2;SDS_P1;SDS_P2;PMS_P1;PMS_P2;Temp;Humidity;BMP_temperature;BMP_pressure;BME280_temperature;BME280_humidity;BME280_pressure;Samples;Min_cycle;Max_cycle;Signal;HPM_P1;HPM_P2
2021/08/20 00:00:35;;;;;;;5.17;3.80;;;;;;;16.03;93.32;100651.72;5054313;28;20168;-67
2021/08/20 00:03:00;;;;;;;5.63;3.83;;;;;;;16.05;93.07;100657.81;5053106;28;20701;-67
2021/08/20 00:05:26;;;;;;;8.93;4.27;;;;;;;15.99;92.90;100652.94;5036262;28;20211;-68
2021/08/20 00:07:52;;;;;;;5.60;3.50;;;;;;;16.01;92.87;100660.88;5053502;28;20199;-67
2021/08/20 00:10:17;;;;;;;5.73;3.70;;;;;;;16.01;92.92;100653.66;5054448;28;20179;-67
2021/08/20 00:12:43;;;;;;;8.80;3.90;;;;;;;16.02;92.36;100659.91;5054782;28;20176;-68
2021/08/20 00:15:09;;;;;;;5.63;3.40;;;;;;;15.95;92.95;100649.59;5054267;28;20251;-68
2021/08/20 00:17:34;;;;;;;6.47;3.73;;;;;;;15.93;93.00;100659.63;5052699;28;20191;-68
2021/08/20 00:20:00;;;;;;;6.17;3.83;;;;;;;15.92;92.51;100654.34;5054341;28;20643;-68
2021/08/20 00:22:27;;;;;;;6.40;4.10;;;;;;;15.92;93.12;100651.66;5053120;28;20233;-67
2021/08/20 00:24:52;;;;;;;9.10;4.53;;;;;;;15.88;92.45;100656.44;5053700;28;20167;-68
2021/08/20 00:27:17;;;;;;;5.63;3.73;;;;;;;15.81;93.04;100646.28;5052515;28;20227;-68
2021/08/20 00:29:43;;;;;;;9.57;3.40;;;;;;;15.80;92.47;100653.50;5053782;28;20226;-68
2021/08/20 00:32:08;;;;;;;8.30;4.07;;;;;;;15.84;91.85;100644.19;5054429;28;20175;-68
2021/08/20 00:34:33;;;;;;;6.00;3.70;;;;;;;15.80;92.41;100655.31;5053527;28;20183;-68
2021/08/20 00:36:59;;;;;;;7.03;3.43;;;;;;;15.78;92.35;100652.75;5053681;28;20187;-68
2021/08/20 00:39:25;;;;;;;7.47;3.70;;;;;;;15.73;92.63;100648.69;5053416;28;20180;-67
2021/08/20 00:41:50;;;;;;;7.43;3.80;;;;;;;15.66;92.87;100648.31;5053510;28;20176;-67
2021/08/20 00:44:17;;;;;;;4.73;3.20;;;;;;;15.57;92.43;100644.44;5052956;28;20178;-67
2021/08/20 00:46:43;;;;;;;7.37;3.47;;;;;;;15.57;93.27;100657.91;5052094;28;20200;-67
2021/08/20 00:49:09;;;;;;;6.63;3.70;;;;;;;15.52;93.28;100654.72;5053521;28;20196;-67
2021/08/20 00:51:37;;;;;;;9.13;3.70;;;;;;;15.57;92.73;100652.53;5053659;28;20179;-66
2021/08/20 00:54:03;;;;;;;6.63;3.67;;;;;;;15.50;93.02;100658.50;5053441;28;20171;-67
2021/08/20 00:56:28;;;;;;;4.23;3.47;;;;;;;15.43;93.91;100654.56;5054134;28;20202;-68
2021/08/20 00:58:54;;;;;;;8.13;3.77;;;;;;;15.39;94.27;100655.75;5054188;28;20180;-66
2021/08/20 01:01:19;;;;;;;4.93;3.87;;;;;;;15.29;94.25;100661.84;5037364;28;20563;-67
2021/08/20 01:03:46;;;;;;;4.57;3.60;;;;;;;15.32;93.74;100664.31;5037345;28;20218;-67
2021/08/20 01:06:11;;;;;;;6.73;3.73;;;;;;;15.26;94.62;100669.28;5053704;28;20265;-66
2021/08/20 01:08:37;;;;;;;6.77;3.50;;;;;;;15.23;94.24;100662.28;5054699;28;20343;-68
2021/08/20 01:11:05;;;;;;;8.23;4.03;;;;;;;15.21;94.51;100655.31;5037379;28;20179;-67
2021/08/20 01:13:35;;;;;;;7.00;3.63;;;;;;;15.22;94.64;100663.25;5053688;28;20175;-67
2021/08/20 01:16:01;;;;;;;7.67;3.50;;;;;;;15.17;94.70;100664.56;5054377;28;20282;-67
2021/08/20 01:18:32;;;;;;;5.57;3.40;;;;;;;15.23;94.39;100661.41;5037056;28;20218;-67
2021/08/20 01:21:00;;;;;;;6.03;4.03;;;;;;;15.21;94.63;100669.59;5054556;28;20171;-67
2021/08/20 01:23:27;;;;;;;7.47;3.70;;;;;;;15.17;94.82;100664.56;5053665;28;20204;-67
2021/08/20 01:25:53;;;;;;;7.33;3.73;;;;;;;15.19;94.29;100668.88;5054575;28;20207;-67
2021/08/20 01:28:18;;;;;;;6.13;3.60;;;;;;;15.18;94.28;100668.97;5037119;28;20256;-66
2021/08/20 01:30:43;;;;;;;8.80;3.93;;;;;;;15.21;94.31;100669.59;5053713;28;20640;-65
2021/08/20 01:33:09;;;;;;;4.57;3.30;;;;;;;15.19;94.21;100676.94;5053074;28;20186;-67
2021/08/20 01:35:34;;;;;;;5.90;3.43;;;;;;;15.10;94.46;100676.75;5052744;28;20195;-67
2021/08/20 01:38:00;;;;;;;9.27;3.60;;;;;;;15.09;94.71;100666.97;5053148;28;20183;-67
2021/08/20 01:40:26;;;;;;;5.67;3.30;;;;;;;15.14;94.28;100671.03;5052830;28;20175;-67
2021/08/20 01:42:51;;;;;;;5.50;3.73;;;;;;;15.15;94.22;100675.44;5051491;28;20184;-67
2021/08/20 01:45:17;;;;;;;7.03;3.73;;;;;;;15.17;93.96;100683.41;5034877;28;20249;-68
2021/08/20 01:47:42;;;;;;;6.57;3.07;;;;;;;15.12;94.41;100662.22;5052733;28;20175;-67
2021/08/20 01:50:08;;;;;;;5.43;3.23;;;;;;;15.07;94.12;100668.94;5051688;28;20187;-67
2021/08/20 01:52:34;;;;;;;6.37;3.40;;;;;;;15.05;94.80;100669.03;5051323;28;20644;-67
2021/08/20 01:55:02;;;;;;;5.47;3.60;;;;;;;15.13;94.18;100665.78;5052154;28;20226;-68
2021/08/20 01:57:27;;;;;;;6.83;3.40;;;;;;;15.06;94.63;100670.75;5052937;28;20687;-67
2021/08/20 01:59:52;;;;;;;7.70;3.50;;;;;;;14.96;95.88;100665.22;5053453;28;20176;-67
2021/08/20 02:02:17;;;;;;;8.57;3.70;;;;;;;14.89;96.19;100660.41;5052778;28;20190;-66
2021/08/20 02:04:43;;;;;;;5.63;3.03;;;;;;;14.83;96.34;100658.16;5052996;28;20547;-67
2021/08/20 02:07:08;;;;;;;6.37;3.13;;;;;;;14.86;96.10;100661.47;5052432;28;20211;-67
2021/08/20 02:09:33;;;;;;;7.07;3.60;;;;;;;14.94;95.74;100671.69;5054638;28;20183;-67
2021/08/20 02:11:58;;;;;;;8.93;3.80;;;;;;;14.89;96.21;100673.84;5055092;28;20535;-67
2021/08/20 02:14:24;;;;;;;4.47;3.17;;;;;;;14.96;95.48;100684.03;5056410;28;20198;-67
2021/08/20 02:16:49;;;;;;;7.70;3.17;;;;;;;14.88;96.25;100674.81;5056091;28;20195;-68
2021/08/20 02:19:14;;;;;;;5.63;3.70;;;;;;;14.84;96.59;100673.28;5056259;28;20576;-67
2021/08/20 02:21:40;;;;;;;6.57;3.40;;;;;;;14.80;96.51;100674.50;5056234;28;20176;-66
2021/08/20 02:24:06;;;;;;;6.07;3.37;;;;;;;14.80;96.62;100680.72;5055755;28;20214;-67
2021/08/20 02:26:31;;;;;;;6.37;3.57;;;;;;;14.74;96.84;100674.94;5056069;28;20262;-67
2021/08/20 02:28:56;;;;;;;7.47;3.60;;;;;;;14.73;96.94;100681.28;5056248;28;20176;-67
2021/08/20 02:31:21;;;;;;;7.20;3.40;;;;;;;14.73;97.26;100668.72;5055073;28;20183;-67
2021/08/20 02:33:49;;;;;;;7.83;3.70;;;;;;;14.75;97.22;100679.34;5056400;28;20175;-67
2021/08/20 02:36:14;;;;;;;8.93;3.70;;;;;;;14.68;97.00;100679.78;5055908;28;20187;-67
2021/08/20 02:38:40;;;;;;;9.57;3.53;;;;;;;14.72;97.44;100682.25;5055961;28;20599;-67
2021/08/20 02:41:05;;;;;;;5.10;3.10;;;;;;;14.77;97.15;100680.09;5056260;28;20172;-66
2021/08/20 02:43:30;;;;;;;5.07;3.47;;;;;;;14.75;97.04;100676.66;5056146;28;20575;-66
2021/08/20 02:45:56;;;;;;;11.83;3.33;;;;;;;14.79;96.63;100683.53;5056695;28;20294;-66
2021/08/20 02:48:22;;;;;;;7.77;3.80;;;;;;;14.77;96.81;100669.34;5054936;28;20253;-66
2021/08/20 02:50:47;;;;;;;5.37;3.00;;;;;;;14.73;96.79;100673.22;5055615;28;20633;-65
2021/08/20 02:53:13;;;;;;;7.23;3.30;;;;;;;14.70;97.26;100668.94;5055825;28;20596;-66
2021/08/20 02:55:38;;;;;;;5.33;3.70;;;;;;;14.75;96.51;100669.47;5055670;28;20685;-66
2021/08/20 02:58:05;;;;;;;8.97;3.60;;;;;;;14.68;97.16;100677.09;5054560;28;20179;-66
2021/08/20 03:00:30;;;;;;;4.97;3.20;;;;;;;14.61;98.45;100681.22;5055701;28;20168;-66
2021/08/20 03:02:55;;;;;;;6.87;3.30;;;;;;;14.52;99.74;100689.09;5055744;28;20229;-66
2021/08/20 03:05:20;;;;;;;6.67;3.67;;;;;;;14.39;100.00;100676.47;5054061;28;20524;-66
2021/08/20 03:07:46;;;;;;;6.37;3.70;;;;;;;14.22;100.00;100674.13;5055880;28;20168;-66
2021/08/20 03:10:11;;;;;;;7.40;3.50;;;;;;;14.21;100.00;100677.78;5054299;28;20218;-67
2021/08/20 03:12:36;;;;;;;8.63;3.47;;;;;;;14.19;100.00;100677.03;5055917;28;20182;-66
2021/08/20 03:15:03;;;;;;;7.10;3.67;;;;;;;14.19;100.00;100671.69;5055705;28;20580;-66
2021/08/20 03:17:28;;;;;;;5.50;3.50;;;;;;;14.19;100.00;100678.88;5054240;28;20640;-68
2021/08/20 03:19:53;;;;;;;9.27;4.30;;;;;;;14.19;100.00;100670.81;5055228;28;20176;-68
2021/08/20 03:22:19;;;;;;;7.87;3.40;;;;;;;14.21;100.00;100672.44;5054786;28;20187;-68
2021/08/20 03:24:44;;;;;;;7.43;3.83;;;;;;;14.24;100.00;100680.25;5054743;28;20540;-68
2021/08/20 03:27:09;;;;;;;7.07;3.40;;;;;;;14.21;100.00;100683.16;5054886;28;20204;-68
2021/08/20 03:29:35;;;;;;;9.37;4.17;;;;;;;14.24;100.00;100688.31;5053457;28;20179;-68
2021/08/20 03:32:00;;;;;;;7.17;4.07;;;;;;;14.26;100.00;100694.44;5054836;28;20171;-68
2021/08/20 03:34:25;;;;;;;4.73;3.03;;;;;;;14.19;100.00;100687.78;5055023;28;20190;-68
2021/08/20 03:36:50;;;;;;;6.97;3.90;;;;;;;14.17;100.00;100688.84;5053239;28;20200;-69
2021/08/20 03:39:16;;;;;;;8.57;3.57;;;;;;;14.09;100.00;100684.00;5054758;28;20242;-68
2021/08/20 03:41:41;;;;;;;7.57;4.27;;;;;;;14.03;100.00;100679.91;5054509;28;20179;-68
2021/08/20 03:44:06;;;;;;;5.40;3.30;;;;;;;14.05;100.00;100680.66;5054500;28;20180;-67
2021/08/20 03:46:32;;;;;;;9.07;4.10;;;;;;;14.07;100.00;100685.94;5054494;28;20226;-67
2021/08/20 03:48:57;;;;;;;9.80;3.83;;;;;;;14.11;100.00;100694.63;5054769;28;20187;-68
2021/08/20 03:51:22;;;;;;;7.23;3.93;;;;;;;14.13;100.00;100692.72;5054287;28;20176;-68
2021/08/20 03:53:47;;;;;;;5.83;3.33;;;;;;;14.13;100.00;100692.72;5053311;28;20183;-68
2021/08/20 03:56:13;;;;;;;8.33;3.43;;;;;;;14.15;100.00;100688.09;5054157;28;20670;-68
2021/08/20 03:58:38;;;;;;;10.67;3.73;;;;;;;14.16;100.00;100692.50;5054459;28;20225;-69
2021/08/20 04:01:07;;;;;;;5.87;3.70;;;;;;;14.17;100.00;100687.03;5054467;28;20229;-69
2021/08/20 04:03:32;;;;;;;8.43;4.00;;;;;;;14.19;100.00;100698.50;5054191;28;20176;-69
2021/08/20 04:05:58;;;;;;;7.00;3.43;;;;;;;14.25;100.00;100691.84;5074577;22;20306;-73
2021/08/20 04:08:23;;;;;;;9.83;3.63;;;;;;;14.30;100.00;100701.28;5052940;28;20176;-73
2021/08/20 04:10:48;;;;;;;9.23;3.80;;;;;;;14.30;100.00;100708.50;5052853;28;20180;-75
2021/08/20 04:13:13;;;;;;;9.27;3.33;;;;;;;14.29;100.00;100707.63;5054218;28;20233;-74
2021/08/20 04:15:39;;;;;;;5.87;3.57;;;;;;;14.29;100.00;100717.50;5053992;28;20172;-74
2021/08/20 04:18:05;;;;;;;5.47;3.60;;;;;;;14.27;100.00;100720.31;5036186;28;20172;-73
2021/08/20 04:20:30;;;;;;;5.37;2.87;;;;;;;14.32;100.00;100722.66;5036006;28;20233;-74
2021/08/20 04:22:57;;;;;;;4.97;3.13;;;;;;;14.36;100.00;100725.03;5052730;28;20624;-74
2021/08/20 04:25:22;;;;;;;5.13;3.00;;;;;;;14.44;100.00;100720.97;5052904;28;20278;-75
2021/08/20 04:27:48;;;;;;;5.93;3.40;;;;;;;14.57;100.00;100730.75;5052480;28;20282;-74
2021/08/20 04:30:13;;;;;;;5.53;3.83;;;;;;;14.48;100.00;100717.94;5052632;28;20188;-75
2021/08/20 04:32:39;;;;;;;7.10;3.30;;;;;;;14.53;100.00;100726.56;5052218;28;20655;-73
2021/08/20 04:35:05;;;;;;;6.80;3.23;;;;;;;14.59;100.00;100720.75;5053539;28;20554;-74
2021/08/20 04:37:30;;;;;;;6.37;3.40;;;;;;;14.54;100.00;100714.84;5053814;28;20230;-74
2021/08/20 04:39:55;;;;;;;7.87;3.30;;;;;;;14.56;100.00;100720.13;5052266;28;20636;-74
2021/08/20 04:42:21;;;;;;;8.87;3.50;;;;;;;14.59;100.00;100730.63;5054256;28;20776;-73
2021/08/20 04:44:46;;;;;;;5.53;3.30;;;;;;;14.53;100.00;100734.63;5052301;28;20644;-74
2021/08/20 04:47:14;;;;;;;6.70;3.40;;;;;;;14.37;100.00;100737.47;5052175;28;20258;-74
2021/08/20 04:49:40;;;;;;;8.37;4.00;;;;;;;14.26;100.00;100740.06;5052450;28;20245;-74
2021/08/20 04:52:05;;;;;;;8.50;4.00;;;;;;;14.17;100.00;100740.72;5052260;28;20656;-74
2021/08/20 04:54:31;;;;;;;8.53;4.03;;;;;;;14.09;100.00;100737.66;5052967;28;20542;-74
2021/08/20 04:56:56;;;;;;;7.07;4.50;;;;;;;14.05;100.00;100737.03;5052439;28;20269;-74
2021/08/20 04:59:21;;;;;;;8.60;3.90;;;;;;;14.02;100.00;100742.59;5052040;28;20186;-74
2021/08/20 05:01:47;;;;;;;8.70;4.17;;;;;;;14.04;100.00;100739.81;5052419;28;20241;-73
2021/08/20 05:04:12;;;;;;;7.37;4.23;;;;;;;14.00;100.00;100733.81;5052176;28;20180;-73
2021/08/20 05:06:38;;;;;;;9.63;3.60;;;;;;;14.03;100.00;100749.69;5035157;28;20207;-72
2021/08/20 05:09:03;;;;;;;8.63;4.70;;;;;;;14.11;100.00;100748.31;5053429;28;20176;-73
2021/08/20 05:11:29;;;;;;;6.87;3.70;;;;;;;14.12;100.00;100741.97;5053188;28;20175;-73
2021/08/20 05:13:55;;;;;;;9.37;4.10;;;;;;;14.15;100.00;100742.66;5051963;28;20183;-74
2021/08/20 05:16:20;;;;;;;6.90;3.60;;;;;;;14.19;100.00;100754.03;5052904;28;20198;-74
2021/08/20 05:18:45;;;;;;;9.30;5.03;;;;;;;14.20;100.00;100751.22;5052975;28;20254;-73
2021/08/20 05:21:11;;;;;;;6.53;4.30;;;;;;;14.23;100.00;100750.16;5053050;28;20175;-73
2021/08/20 05:23:36;;;;;;;7.97;4.13;;;;;;;14.30;100.00;100754.13;5053411;28;20233;-74
2021/08/20 05:26:01;;;;;;;8.77;4.67;;;;;;;14.32;100.00;100753.06;5051296;28;20215;-74
2021/08/20 05:28:27;;;;;;;7.40;4.37;;;;;;;14.38;100.00;100760.69;5051974;28;20648;-74
2021/08/20 05:30:52;;;;;;;8.83;4.47;;;;;;;14.40;100.00;100758.75;5053473;28;20518;-74
2021/08/20 05:33:17;;;;;;;9.20;4.20;;;;;;;14.51;100.00;100760.72;5051717;28;20605;-75
2021/08/20 05:35:46;;;;;;;8.37;4.83;;;;;;;14.62;100.00;100762.66;5052766;28;20178;-75
2021/08/20 05:38:11;;;;;;;8.77;4.33;;;;;;;14.73;100.00;100767.25;5052750;28;20613;-74
2021/08/20 05:40:37;;;;;;;6.47;4.33;;;;;;;14.79;100.00;100770.34;5051622;28;20195;-73
2021/08/20 05:43:03;;;;;;;6.60;3.83;;;;;;;14.81;100.00;100767.56;5053851;28;20183;-74
2021/08/20 05:45:29;;;;;;;6.30;3.90;;;;;;;14.92;100.00;100771.22;5055493;28;20187;-74
2021/08/20 05:47:54;;;;;;;8.23;4.00;;;;;;;14.91;100.00;100768.63;5055603;28;20591;-74
2021/08/20 05:50:19;;;;;;;8.13;4.17;;;;;;;14.94;100.00;100773.78;5055818;28;20196;-75
2021/08/20 05:52:44;;;;;;;9.37;3.53;;;;;;;14.99;100.00;100768.94;5055517;28;20639;-73
2021/08/20 05:55:12;;;;;;;10.87;4.23;;;;;;;15.12;100.00;100767.06;5055596;28;20171;-75
2021/08/20 05:57:37;;;;;;;7.43;4.43;;;;;;;15.21;100.00;100770.91;5055592;28;20364;-75
2021/08/20 06:00:06;;;;;;;6.80;4.00;;;;;;;15.32;100.00;100773.69;5055565;28;20199;-75
2021/08/20 06:02:31;;;;;;;7.17;3.80;;;;;;;15.42;99.54;100779.25;5055873;28;20237;-73
2021/08/20 06:04:57;;;;;;;7.17;3.93;;;;;;;15.50;98.58;100771.47;5056371;28;20183;-73
2021/08/20 06:07:22;;;;;;;6.83;3.60;;;;;;;15.43;98.07;100773.75;5038467;28;20215;-74
2021/08/20 06:09:48;;;;;;;6.93;3.70;;;;;;;15.50;97.84;100777.69;5055429;28;20176;-76
2021/08/20 06:12:14;;;;;;;9.87;3.93;;;;;;;15.49;98.29;100775.13;5055107;28;20184;-75
2021/08/20 06:14:39;;;;;;;7.43;3.97;;;;;;;15.51;98.20;100774.03;5055364;28;20168;-75
2021/08/20 06:17:05;;;;;;;6.87;3.43;;;;;;;15.49;97.75;100775.97;5056137;28;20192;-75
2021/08/20 06:19:30;;;;;;;6.23;3.60;;;;;;;15.43;98.82;100780.97;5056825;28;20233;-75
2021/08/20 06:22:08;;;;;;;7.00;3.97;;;;;;;15.34;100.00;100771.75;5056179;28;20525;-75
2021/08/20 06:24:33;;;;;;;6.50;3.43;;;;;;;15.36;100.00;100785.06;5040868;28;20168;-76
2021/08/20 06:26:58;;;;;;;7.00;3.80;;;;;;;15.32;100.00;100785.31;5057165;28;20230;-76
2021/08/20 06:29:24;;;;;;;6.30;3.80;;;;;;;15.33;100.00;100776.28;5056720;28;20546;-74
2021/08/20 06:31:49;;;;;;;8.73;3.83;;;;;;;15.28;100.00;100778.44;5056234;28;20207;-74
2021/08/20 06:34:15;;;;;;;7.70;3.87;;;;;;;15.19;100.00;100781.78;5038522;28;20179;-75
2021/08/20 06:36:41;;;;;;;5.93;3.90;;;;;;;15.14;100.00;100789.31;5038343;28;20626;-74
2021/08/20 06:39:06;;;;;;;5.80;4.00;;;;;;;15.07;100.00;100789.88;5056254;28;20175;-74
2021/08/20 06:41:32;;;;;;;8.00;4.30;;;;;;;15.10;100.00;100784.28;5038647;28;20522;-73
2021/08/20 06:43:57;;;;;;;7.50;3.87;;;;;;;15.15;100.00;100788.34;5055119;28;20190;-74
2021/08/20 06:46:22;;;;;;;8.63;4.27;;;;;;;15.13;100.00;100789.44;5054665;28;20207;-74
2021/08/20 06:48:48;;;;;;;6.77;4.20;;;;;;;15.17;100.00;100791.78;5055243;28;20655;-74
2021/08/20 06:51:14;;;;;;;8.93;4.20;;;;;;;15.20;100.00;100788.00;5056472;28;20238;-74
2021/08/20 06:53:39;;;;;;;8.77;3.73;;;;;;;15.23;100.00;100793.16;5037950;28;20688;-74
2021/08/20 06:56:08;;;;;;;7.40;3.70;;;;;;;15.30;100.00;100792.63;5054554;28;20651;-76
2021/08/20 06:58:33;;;;;;;5.40;3.40;;;;;;;15.39;100.00;100790.22;5056005;28;20215;-74
2021/08/20 07:00:58;;;;;;;10.00;3.67;;;;;;;15.49;100.00;100786.75;5038492;28;20652;-75
2021/08/20 07:03:24;;;;;;;7.43;3.43;;;;;;;15.66;99.15;100788.22;5056470;28;20175;-75
2021/08/20 07:05:49;;;;;;;9.53;3.70;;;;;;;15.83;98.15;100795.00;5055740;28;20222;-76
2021/08/20 07:08:15;;;;;;;5.67;3.47;;;;;;;15.95;96.95;100794.94;5054901;28;20187;-75
2021/08/20 07:10:40;;;;;;;7.60;3.10;;;;;;;16.05;95.01;100794.25;5054268;28;20270;-75
2021/08/20 07:13:05;;;;;;;7.63;3.50;;;;;;;15.99;95.59;100789.34;5055385;28;20180;-74
2021/08/20 07:15:30;;;;;;;6.13;3.37;;;;;;;15.90;97.47;100786.34;5055235;28;20623;-75
2021/08/20 07:17:56;;;;;;;5.10;3.03;;;;;;;15.76;97.80;100793.75;5055654;28;20180;-74
2021/08/20 07:20:21;;;;;;;5.07;2.73;;;;;;;15.67;97.91;100799.84;5055154;28;20633;-75
2021/08/20 07:22:46;;;;;;;10.50;3.67;;;;;;;15.61;98.56;100798.47;5054143;28;20245;-75
2021/08/20 07:25:12;;;;;;;5.37;3.20;;;;;;;15.60;97.74;100802.09;5054004;28;20167;-75
2021/08/20 07:27:37;;;;;;;5.53;2.87;;;;;;;15.64;98.11;100800.94;5053570;28;20265;-74
2021/08/20 07:30:04;;;;;;;5.77;3.10;;;;;;;15.73;97.30;100800.25;5053668;28;20175;-74
2021/08/20 07:32:30;;;;;;;5.97;3.17;;;;;;;15.81;96.40;100796.97;5055095;28;20182;-74
2021/08/20 07:34:55;;;;;;;8.43;3.07;;;;;;;15.88;94.67;100798.22;5053619;28;20172;-73
2021/08/20 07:37:20;;;;;;;6.17;2.67;;;;;;;15.96;93.58;100798.50;5054722;28;20200;-74
2021/08/20 07:39:46;;;;;;;3.47;2.30;;;;;;;16.00;95.40;100807.22;5055008;28;20195;-75
2021/08/20 07:42:11;;;;;;;7.07;2.60;;;;;;;15.89;95.17;100805.31;5053489;28;20175;-75
2021/08/20 07:44:37;;;;;;;4.83;2.40;;;;;;;15.69;97.98;100809.50;5054559;28;20286;-75
2021/08/20 07:47:02;;;;;;;8.77;3.00;;;;;;;15.46;97.20;100804.94;5053350;28;20230;-75
2021/08/20 07:49:31;;;;;;;5.67;2.27;;;;;;;15.28;98.35;100815.22;5054729;28;20195;-75
2021/08/20 07:51:57;;;;;;;4.23;2.40;;;;;;;15.14;98.96;100808.13;5053553;28;20658;-75
2021/08/20 07:54:23;;;;;;;4.97;2.23;;;;;;;15.04;99.92;100811.59;5053753;28;20179;-74
2021/08/20 07:56:48;;;;;;;5.53;2.60;;;;;;;15.06;99.22;100805.16;5036795;28;20192;-75
2021/08/20 07:59:13;;;;;;;5.57;2.60;;;;;;;15.09;100.00;100804.06;5053786;28;20186;-74
2021/08/20 08:01:39;;;;;;;5.93;2.07;;;;;;;15.06;100.00;100805.16;5053584;28;20172;-74
2021/08/20 08:04:04;;;;;;;6.23;2.60;;;;;;;15.03;100.00;100808.06;5054646;28;20179;-74
2021/08/20 08:06:30;;;;;;;4.23;1.63;;;;;;;14.98;100.00;100812.91;5053859;28;20207;-75
2021/08/20 08:08:55;;;;;;;3.87;1.80;;;;;;;14.82;100.00;100801.53;5055172;28;20180;-74
2021/08/20 08:11:21;;;;;;;3.97;1.87;;;;;;;14.74;100.00;100809.25;5036729;28;20224;-74
2021/08/20 08:13:46;;;;;;;4.40;1.90;;;;;;;14.76;100.00;100813.56;5036611;28;20179;-74
2021/08/20 08:16:11;;;;;;;2.93;1.90;;;;;;;14.78;100.00;100814.31;5052837;28;20208;-74
2021/08/20 08:18:37;;;;;;;7.87;2.50;;;;;;;14.78;100.00;100821.50;5036296;28;20218;-75
2021/08/20 08:21:02;;;;;;;4.53;2.10;;;;;;;14.55;100.00;100820.47;5052858;28;20175;-75
2021/08/20 08:23:28;;;;;;;4.67;2.00;;;;;;;14.72;100.00;100830.00;5052745;28;20216;-74
2021/08/20 08:25:54;;;;;;;4.73;2.43;;;;;;;14.67;100.00;100824.97;5052601;28;20207;-75
2021/08/20 08:28:21;;;;;;;4.23;2.13;;;;;;;14.58;100.00;100823.78;5054169;28;20681;-75
2021/08/20 08:30:48;;;;;;;7.13;2.83;;;;;;;14.43;100.00;100815.91;5052772;28;20188;-75
2021/08/20 08:33:14;;;;;;;6.13;2.20;;;;;;;13.97;100.00;100819.88;5036425;28;20729;-74
2021/08/20 08:35:39;;;;;;;6.10;1.90;;;;;;;14.03;100.00;100816.78;5054022;28;20258;-75
2021/08/20 08:38:05;;;;;;;4.93;2.20;;;;;;;13.87;100.00;100818.78;5052496;28;20182;-75
2021/08/20 08:40:32;;;;;;;6.57;2.27;;;;;;;14.04;100.00;100826.56;5052228;28;20179;-75
2021/08/20 08:42:58;;;;;;;10.13;2.47;;;;;;;14.05;100.00;100820.22;5052615;28;20179;-76
2021/08/20 08:45:23;;;;;;;5.00;2.40;;;;;;;14.12;100.00;100817.97;5052583;28;20183;-76
2021/08/20 08:47:49;;;;;;;5.10;2.27;;;;;;;13.95;100.00;100824.50;5052231;28;20199;-75
2021/08/20 08:50:15;;;;;;;4.17;2.00;;;;;;;13.93;100.00;100821.06;5052261;28;20211;-75
2021/08/20 08:52:40;;;;;;;7.87;2.20;;;;;;;14.13;100.00;100824.22;5052201;28;20272;-75
2021/08/20 08:55:07;;;;;;;5.97;2.20;;;;;;;14.16;100.00;100827.56;5053644;28;20176;-75
2021/08/20 08:57:33;;;;;;;6.77;1.83;;;;;;;14.09;100.00;100832.47;5035522;28;20242;-75
2021/08/20 08:59:58;;;;;;;4.10;1.90;;;;;;;14.29;100.00;100833.81;5052787;28;20179;-75
2021/08/20 09:02:25;;;;;;;6.73;2.10;;;;;;;14.15;100.00;100835.72;5037392;28;20183;-76
2021/08/20 09:04:58;;;;;;;4.67;2.07;;;;;;;14.27;100.00;100837.56;5053898;28;20540;-76
2021/08/20 09:07:24;;;;;;;6.37;2.33;;;;;;;14.31;100.00;100849.81;5053225;28;20292;-75
2021/08/20 09:10:15;;;;;;;5.37;1.97;;;;;;;14.28;100.00;100847.34;5054225;28;20179;-75
2021/08/20 09:13:01;;;;;;;4.90;2.57;;;;;;;14.33;100.00;100842.50;5053447;28;20171;-75
2021/08/20 09:15:29;;;;;;;5.77;2.10;;;;;;;14.25;100.00;100839.50;5052861;28;20266;-75
2021/08/20 09:17:57;;;;;;;5.60;2.90;;;;;;;14.17;100.00;100849.91;5052209;28;20644;-75
2021/08/20 09:20:28;;;;;;;5.23;3.00;;;;;;;14.17;100.00;100847.22;5053329;28;20171;-75
2021/08/20 09:22:56;;;;;;;3.07;2.07;;;;;;;14.35;100.00;100854.88;5053053;28;20178;-75
2021/08/20 09:25:45;;;;;;;7.90;1.90;;;;;;;14.20;100.00;100847.88;5053470;28;20555;-75
2021/08/20 09:28:30;;;;;;;4.60;2.80;;;;;;;14.35;100.00;100854.00;5052039;28;20224;-74
2021/08/20 09:30:56;;;;;;;3.53;1.90;;;;;;;14.07;100.00;100850.50;5053001;28;20179;-75
2021/08/20 09:33:29;;;;;;;7.07;2.63;;;;;;;13.91;100.00;100852.50;5053307;28;20228;-74
2021/08/20 09:36:03;;;;;;;5.67;2.37;;;;;;;14.27;100.00;100859.91;5053015;28;20184;-75
2021/08/20 09:38:30;;;;;;;3.47;2.20;;;;;;;14.53;100.00;100855.47;5051588;28;20639;-74
2021/08/20 09:41:00;;;;;;;13.70;3.23;;;;;;;14.50;100.00;100854.84;5051722;28;20171;-74
2021/08/20 09:43:35;;;;;;;7.73;3.70;;;;;;;14.47;100.00;100866.63;5051825;28;20175;-75
2021/08/20 09:46:12;;;;;;;8.03;3.80;;;;;;;14.21;100.00;100860.31;5035997;28;20207;-75
2021/08/20 09:48:54;;;;;;;6.87;3.93;;;;;;;14.17;100.00;100857.94;5036014;28;20176;-75
2021/08/20 09:51:45;;;;;;;12.17;4.07;;;;;;;14.15;100.00;100859.88;5054254;28;20175;-75
2021/08/20 09:54:22;;;;;;;6.57;3.87;;;;;;;14.21;100.00;100859.47;5051774;28;20616;-74
2021/08/20 09:56:47;;;;;;;7.80;3.47;;;;;;;14.23;100.00;100863.75;5051496;28;20194;-75
2021/08/20 09:59:13;;;;;;;8.60;4.17;;;;;;;14.20;100.00;100863.13;5052813;28;20700;-74
2021/08/20 10:01:40;;;;;;;6.30;3.47;;;;;;;14.06;100.00;100859.50;5051160;28;20175;-74
2021/08/20 10:04:08;;;;;;;9.20;3.63;;;;;;;13.92;100.00;100848.00;5051549;28;20194;-73
2021/08/20 10:06:39;;;;;;;5.80;3.43;;;;;;;14.06;100.00;100853.28;5055403;22;20223;-67
2021/08/20 10:09:06;;;;;;;8.53;4.43;;;;;;;14.19;100.00;100846.16;5053271;28;20211;-67
2021/08/20 10:11:35;;;;;;;6.30;3.87;;;;;;;14.09;100.00;100851.25;5052217;28;20221;-67
2021/08/20 10:14:01;;;;;;;5.47;3.23;;;;;;;13.90;100.00;100849.91;5035169;28;20183;-67
2021/08/20 10:16:29;;;;;;;5.33;3.40;;;;;;;14.17;100.00;100861.50;5052080;28;20187;-68
2021/08/20 10:18:55;;;;;;;5.77;3.50;;;;;;;14.07;100.00;100866.59;5054500;28;20179;-69
2021/08/20 10:21:20;;;;;;;6.30;3.50;;;;;;;13.99;100.00;100868.06;5053930;28;20640;-68
2021/08/20 10:23:46;;;;;;;5.60;3.90;;;;;;;14.38;100.00;100875.28;5053737;28;20258;-68
2021/08/20 10:26:12;;;;;;;9.43;3.43;;;;;;;14.56;100.00;100876.75;5052126;28;20195;-68
2021/08/20 10:28:37;;;;;;;6.00;2.87;;;;;;;14.40;100.00;100876.03;5052537;28;20259;-67
2021/08/20 10:31:03;;;;;;;4.53;2.17;;;;;;;14.20;100.00;100863.13;5038967;28;20190;-69
2021/08/20 10:33:33;;;;;;;4.57;2.50;;;;;;;14.18;100.00;100881.16;5057190;28;20175;-67
2021/08/20 10:35:58;;;;;;;3.50;2.37;;;;;;;14.63;100.00;100883.41;5057648;28;20509;-68
2021/08/20 10:38:28;;;;;;;4.53;2.40;;;;;;;14.61;100.00;100881.81;5056934;28;20182;-69
2021/08/20 10:41:16;;;;;;;5.77;2.60;;;;;;;14.47;100.00;100885.41;5057013;28;20183;-69
2021/08/20 10:43:56;;;;;;;4.03;2.60;;;;;;;14.77;100.00;100878.91;5056591;28;20155;-69
2021/08/20 10:46:30;;;;;;;7.10;2.73;;;;;;;15.04;100.00;100885.03;5056924;28;20206;-69
2021/08/20 10:49:11;;;;;;;7.37;3.07;;;;;;;15.11;100.00;100883.63;5057058;28;20529;-68
2021/08/20 10:51:58;;;;;;;4.03;2.87;;;;;;;14.82;100.00;100882.13;5056694;28;20175;-68
2021/08/20 10:54:40;;;;;;;5.87;2.50;;;;;;;14.84;100.00;100890.94;5056958;28;20186;-68
2021/08/20 10:57:06;;;;;;;3.67;2.70;;;;;;;15.27;100.00;100888.78;5057218;28;20199;-69
2021/08/20 10:59:38;;;;;;;4.87;2.30;;;;;;;14.99;100.00;100897.94;5054887;28;20179;-68
2021/08/20 11:02:18;;;;;;;4.23;1.90;;;;;;;14.61;100.00;100898.78;5056303;28;20191;-69
2021/08/20 11:05:14;;;;;;;2.90;2.23;;;;;;;15.15;100.00;100898.56;5056093;28;20195;-70
2021/08/20 11:07:40;;;;;;;2.43;2.23;;;;;;;15.08;100.00;100901.81;5053891;28;20772;-69
2021/08/20 11:10:08;;;;;;;3.30;2.20;;;;;;;15.11;100.00;100902.44;5055847;28;20552;-69
2021/08/20 11:12:46;;;;;;;5.50;2.27;;;;;;;14.36;100.00;100906.75;5055555;28;20167;-68
2021/08/20 11:15:21;;;;;;;4.37;2.27;;;;;;;14.25;100.00;100906.59;5054313;28;20270;-68
2021/08/20 11:17:56;;;;;;;3.23;2.53;;;;;;;14.88;100.00;100908.59;5053973;28;20194;-69